Terminal Aerodrome Forecast
Issued by NWS Medford, OR

Home | Current Version | Previous Version | Text Only | Print | Product List | Glossary On
Versions: 1 2 3 4 5 6 7 8 9 10 11 12 13 14 15 16 17 18 19 20 21 22
000
FTUS46 KMFR 252354 AAA
TAFMFR
TAF AMD
KMFR 252354Z 2600/2624 35003KT P6SM FEW017 BKN050
     FM260300 VRB03KT P6SM BKN040 BKN200
     FM260900 00000KT 2SM BR SCT007
     FM261300 00000KT 1/2SM FG VV002
     FM261700 VRB03KT 4SM BR SCT002 BKN004
     FM261800 16003KT P6SM SCT006 BKN200=

USA.gov is the U.S. government's official web portal to all federal, state and local government web resources and services.